sensor_id;sensor_type;location;lat;lon;timestamp;P1;durP1;ratioP1;P2;durP2;ratioP2
62709;SDS011;48770;51.624;5.886;2022-08-19T00:01:44;3.80;;;3.50;;
62709;SDS011;48770;51.624;5.886;2022-08-19T00:04:13;3.90;;;3.53;;
62709;SDS011;48770;51.624;5.886;2022-08-19T00:06:41;3.97;;;3.67;;
62709;SDS011;48770;51.624;5.886;2022-08-19T00:09:08;3.75;;;3.53;;
62709;SDS011;48770;51.624;5.886;2022-08-19T00:11:36;3.90;;;3.60;;
62709;SDS011;48770;51.624;5.886;2022-08-19T00:14:02;3.97;;;3.67;;
62709;SDS011;48770;51.624;5.886;2022-08-19T00:16:29;3.97;;;3.58;;
62709;SDS011;48770;51.624;5.886;2022-08-19T00:18:58;4.00;;;3.70;;
62709;SDS011;48770;51.624;5.886;2022-08-19T00:21:23;3.92;;;3.63;;
62709;SDS011;48770;51.624;5.886;2022-08-19T00:23:50;3.70;;;3.40;;
62709;SDS011;48770;51.624;5.886;2022-08-19T00:26:16;4.50;;;3.78;;
62709;SDS011;48770;51.624;5.886;2022-08-19T00:28:41;4.35;;;3.95;;
62709;SDS011;48770;51.624;5.886;2022-08-19T00:31:07;4.93;;;3.28;;
62709;SDS011;48770;51.624;5.886;2022-08-19T00:33:33;4.72;;;4.32;;
62709;SDS011;48770;51.624;5.886;2022-08-19T00:35:59;4.50;;;4.10;;
62709;SDS011;48770;51.624;5.886;2022-08-19T00:38:26;3.90;;;3.60;;
62709;SDS011;48770;51.624;5.886;2022-08-19T00:40:52;3.63;;;3.33;;
62709;SDS011;48770;51.624;5.886;2022-08-19T00:43:19;4.13;;;3.83;;
62709;SDS011;48770;51.624;5.886;2022-08-19T00:45:46;3.88;;;3.58;;
62709;SDS011;48770;51.624;5.886;2022-08-19T00:48:12;4.28;;;3.65;;
62709;SDS011;48770;51.624;5.886;2022-08-19T00:50:39;3.78;;;3.38;;
62709;SDS011;48770;51.624;5.886;2022-08-19T00:53:07;4.30;;;3.90;;
62709;SDS011;48770;51.624;5.886;2022-08-19T00:55:34;4.07;;;3.78;;
62709;SDS011;48770;51.624;5.886;2022-08-19T00:58:04;3.58;;;3.28;;
62709;SDS011;48770;51.624;5.886;2022-08-19T01:00:35;4.28;;;3.97;;
62709;SDS011;48770;51.624;5.886;2022-08-19T01:03:09;4.07;;;3.63;;
62709;SDS011;48770;51.624;5.886;2022-08-19T01:05:37;3.47;;;3.22;;
62709;SDS011;48770;51.624;5.886;2022-08-19T01:08:05;4.05;;;3.75;;
62709;SDS011;48770;51.624;5.886;2022-08-19T01:10:35;4.55;;;3.70;;
62709;SDS011;48770;51.624;5.886;2022-08-19T01:13:04;4.63;;;3.83;;
62709;SDS011;48770;51.624;5.886;2022-08-19T01:15:32;4.68;;;4.28;;
62709;SDS011;48770;51.624;5.886;2022-08-19T01:18:01;4.28;;;3.90;;
62709;SDS011;48770;51.624;5.886;2022-08-19T01:20:32;4.13;;;3.72;;
62709;SDS011;48770;51.624;5.886;2022-08-19T01:22:58;4.70;;;4.20;;
62709;SDS011;48770;51.624;5.886;2022-08-19T01:25:26;3.85;;;3.55;;
62709;SDS011;48770;51.624;5.886;2022-08-19T01:27:56;3.97;;;3.67;;
62709;SDS011;48770;51.624;5.886;2022-08-19T01:30:24;4.18;;;3.65;;
62709;SDS011;48770;51.624;5.886;2022-08-19T01:32:53;4.43;;;4.03;;
62709;SDS011;48770;51.624;5.886;2022-08-19T01:35:19;4.00;;;3.70;;
62709;SDS011;48770;51.624;5.886;2022-08-19T01:37:57;3.97;;;3.67;;
62709;SDS011;48770;51.624;5.886;2022-08-19T01:40:29;4.47;;;4.07;;
62709;SDS011;48770;51.624;5.886;2022-08-19T01:42:57;4.28;;;3.95;;
62709;SDS011;48770;51.624;5.886;2022-08-19T01:45:24;4.10;;;3.80;;
62709;SDS011;48770;51.624;5.886;2022-08-19T01:47:51;4.15;;;3.85;;
62709;SDS011;48770;51.624;5.886;2022-08-19T01:50:17;4.38;;;3.97;;
62709;SDS011;48770;51.624;5.886;2022-08-19T01:52:43;3.97;;;3.60;;
62709;SDS011;48770;51.624;5.886;2022-08-19T01:55:14;4.38;;;4.05;;
62709;SDS011;48770;51.624;5.886;2022-08-19T01:57:43;4.35;;;3.95;;
62709;SDS011;48770;51.624;5.886;2022-08-19T02:00:12;4.20;;;3.90;;
62709;SDS011;48770;51.624;5.886;2022-08-19T02:02:40;4.75;;;4.30;;
62709;SDS011;48770;51.624;5.886;2022-08-19T02:05:06;3.92;;;3.63;;
62709;SDS011;48770;51.624;5.886;2022-08-19T02:07:33;4.22;;;3.88;;
62709;SDS011;48770;51.624;5.886;2022-08-19T02:09:58;4.22;;;3.83;;
62709;SDS011;48770;51.624;5.886;2022-08-19T02:12:28;4.93;;;4.45;;
62709;SDS011;48770;51.624;5.886;2022-08-19T02:14:54;4.78;;;4.28;;
62709;SDS011;48770;51.624;5.886;2022-08-19T02:17:19;4.10;;;3.80;;
62709;SDS011;48770;51.624;5.886;2022-08-19T02:19:45;4.80;;;4.07;;
62709;SDS011;48770;51.624;5.886;2022-08-19T02:22:10;4.35;;;3.95;;
62709;SDS011;48770;51.624;5.886;2022-08-19T02:24:36;4.15;;;3.85;;
62709;SDS011;48770;51.624;5.886;2022-08-19T02:27:01;4.50;;;4.13;;
62709;SDS011;48770;51.624;5.886;2022-08-19T02:29:26;4.72;;;4.32;;
62709;SDS011;48770;51.624;5.886;2022-08-19T02:31:52;4.57;;;4.20;;
62709;SDS011;48770;51.624;5.886;2022-08-19T02:34:17;5.03;;;4.38;;
62709;SDS011;48770;51.624;5.886;2022-08-19T02:36:42;4.95;;;4.35;;
62709;SDS011;48770;51.624;5.886;2022-08-19T02:39:08;5.35;;;4.38;;
62709;SDS011;48770;51.624;5.886;2022-08-19T02:41:34;5.35;;;4.80;;
62709;SDS011;48770;51.624;5.886;2022-08-19T02:44:00;4.60;;;4.18;;
62709;SDS011;48770;51.624;5.886;2022-08-19T02:46:28;4.43;;;4.03;;
62709;SDS011;48770;51.624;5.886;2022-08-19T02:48:56;4.50;;;4.10;;
62709;SDS011;48770;51.624;5.886;2022-08-19T02:51:26;4.80;;;4.40;;
62709;SDS011;48770;51.624;5.886;2022-08-19T02:53:53;4.45;;;4.05;;
62709;SDS011;48770;51.624;5.886;2022-08-19T02:56:21;5.55;;;4.70;;
62709;SDS011;48770;51.624;5.886;2022-08-19T02:58:47;4.60;;;4.20;;
62709;SDS011;48770;51.624;5.886;2022-08-19T03:01:23;4.70;;;4.30;;
62709;SDS011;48770;51.624;5.886;2022-08-19T03:03:51;4.43;;;4.03;;
62709;SDS011;48770;51.624;5.886;2022-08-19T03:06:16;4.78;;;4.38;;
62709;SDS011;48770;51.624;5.886;2022-08-19T03:08:43;4.50;;;4.10;;
62709;SDS011;48770;51.624;5.886;2022-08-19T03:11:18;3.97;;;3.65;;
62709;SDS011;48770;51.624;5.886;2022-08-19T03:13:46;5.05;;;4.53;;
62709;SDS011;48770;51.624;5.886;2022-08-19T03:16:14;4.32;;;3.92;;
62709;SDS011;48770;51.624;5.886;2022-08-19T03:18:40;4.68;;;4.30;;
62709;SDS011;48770;51.624;5.886;2022-08-19T03:21:05;4.78;;;4.07;;
62709;SDS011;48770;51.624;5.886;2022-08-19T03:23:31;4.82;;;4.30;;
62709;SDS011;48770;51.624;5.886;2022-08-19T03:25:57;5.47;;;4.97;;
62709;SDS011;48770;51.624;5.886;2022-08-19T03:28:22;4.97;;;4.57;;
62709;SDS011;48770;51.624;5.886;2022-08-19T03:30:54;5.18;;;4.45;;
62709;SDS011;48770;51.624;5.886;2022-08-19T03:33:26;4.72;;;4.00;;
62709;SDS011;48770;51.624;5.886;2022-08-19T03:36:05;6.15;;;4.75;;
62709;SDS011;48770;51.624;5.886;2022-08-19T03:41:07;4.72;;;4.32;;
62709;SDS011;48770;51.624;5.886;2022-08-19T03:43:36;5.28;;;4.78;;
62709;SDS011;48770;51.624;5.886;2022-08-19T03:46:04;4.80;;;4.38;;
62709;SDS011;48770;51.624;5.886;2022-08-19T03:48:32;5.20;;;4.45;;
62709;SDS011;48770;51.624;5.886;2022-08-19T03:50:58;4.90;;;4.40;;
62709;SDS011;48770;51.624;5.886;2022-08-19T03:53:24;5.40;;;4.65;;
62709;SDS011;48770;51.624;5.886;2022-08-19T03:55:51;4.90;;;4.50;;
62709;SDS011;48770;51.624;5.886;2022-08-19T03:58:18;5.78;;;4.72;;
62709;SDS011;48770;51.624;5.886;2022-08-19T04:00:43;5.13;;;4.63;;
62709;SDS011;48770;51.624;5.886;2022-08-19T04:03:09;5.97;;;5.15;;
62709;SDS011;48770;51.624;5.886;2022-08-19T04:05:34;7.38;;;5.22;;
62709;SDS011;48770;51.624;5.886;2022-08-19T04:07:59;5.60;;;5.10;;
62709;SDS011;48770;51.624;5.886;2022-08-19T04:10:25;5.03;;;4.72;;
62709;SDS011;48770;51.624;5.886;2022-08-19T04:12:51;5.68;;;4.95;;
62709;SDS011;48770;51.624;5.886;2022-08-19T04:15:16;7.47;;;4.90;;
62709;SDS011;48770;51.624;5.886;2022-08-19T04:17:42;5.30;;;4.80;;
62709;SDS011;48770;51.624;5.886;2022-08-19T04:20:07;5.90;;;4.82;;
62709;SDS011;48770;51.624;5.886;2022-08-19T04:22:33;5.18;;;4.68;;
62709;SDS011;48770;51.624;5.886;2022-08-19T04:24:58;5.20;;;4.75;;
62709;SDS011;48770;51.624;5.886;2022-08-19T04:27:23;5.60;;;5.10;;
62709;SDS011;48770;51.624;5.886;2022-08-19T04:29:49;5.20;;;4.70;;
62709;SDS011;48770;51.624;5.886;2022-08-19T04:32:14;6.00;;;5.40;;
62709;SDS011;48770;51.624;5.886;2022-08-19T04:34:40;5.63;;;5.13;;
62709;SDS011;48770;51.624;5.886;2022-08-19T04:37:06;5.22;;;4.72;;
62709;SDS011;48770;51.624;5.886;2022-08-19T04:39:37;6.10;;;4.93;;
62709;SDS011;48770;51.624;5.886;2022-08-19T04:42:22;5.40;;;4.90;;
62709;SDS011;48770;51.624;5.886;2022-08-19T04:47:34;5.50;;;5.00;;
62709;SDS011;48770;51.624;5.886;2022-08-19T04:50:01;6.00;;;5.15;;
62709;SDS011;48770;51.624;5.886;2022-08-19T04:52:27;5.43;;;4.93;;
62709;SDS011;48770;51.624;5.886;2022-08-19T04:54:53;5.47;;;4.97;;
62709;SDS011;48770;51.624;5.886;2022-08-19T04:57:20;5.40;;;4.90;;
62709;SDS011;48770;51.624;5.886;2022-08-19T04:59:46;5.28;;;4.85;;
62709;SDS011;48770;51.624;5.886;2022-08-19T05:02:11;5.60;;;4.95;;
62709;SDS011;48770;51.624;5.886;2022-08-19T05:04:36;4.75;;;4.35;;
62709;SDS011;48770;51.624;5.886;2022-08-19T05:07:04;5.20;;;4.70;;
62709;SDS011;48770;51.624;5.886;2022-08-19T05:09:29;5.03;;;4.63;;
62709;SDS011;48770;51.624;5.886;2022-08-19T05:11:55;5.60;;;5.10;;
62709;SDS011;48770;51.624;5.886;2022-08-19T05:14:20;4.88;;;4.47;;
62709;SDS011;48770;51.624;5.886;2022-08-19T05:16:46;4.93;;;4.43;;
62709;SDS011;48770;51.624;5.886;2022-08-19T05:19:11;5.53;;;5.13;;
62709;SDS011;48770;51.624;5.886;2022-08-19T05:21:55;5.60;;;5.07;;
62709;SDS011;48770;51.624;5.886;2022-08-19T05:24:39;4.97;;;4.57;;
62709;SDS011;48770;51.624;5.886;2022-08-19T05:27:05;5.20;;;4.70;;
62709;SDS011;48770;51.624;5.886;2022-08-19T05:29:31;4.93;;;4.45;;
62709;SDS011;48770;51.624;5.886;2022-08-19T05:31:59;5.28;;;4.78;;
62709;SDS011;48770;51.624;5.886;2022-08-19T05:34:26;4.75;;;4.35;;
62709;SDS011;48770;51.624;5.886;2022-08-19T05:36:53;4.65;;;4.25;;
62709;SDS011;48770;51.624;5.886;2022-08-19T05:39:22;5.40;;;5.00;;
62709;SDS011;48770;51.624;5.886;2022-08-19T05:41:58;5.10;;;4.60;;
62709;SDS011;48770;51.624;5.886;2022-08-19T05:44:32;4.97;;;4.55;;
62709;SDS011;48770;51.624;5.886;2022-08-19T05:47:00;5.18;;;4.75;;
62709;SDS011;48770;51.624;5.886;2022-08-19T05:49:27;4.85;;;4.45;;
62709;SDS011;48770;51.624;5.886;2022-08-19T05:51:54;5.10;;;4.60;;
62709;SDS011;48770;51.624;5.886;2022-08-19T05:54:20;4.57;;;4.18;;
62709;SDS011;48770;51.624;5.886;2022-08-19T05:56:48;5.00;;;4.60;;
62709;SDS011;48770;51.624;5.886;2022-08-19T05:59:14;4.78;;;4.35;;
62709;SDS011;48770;51.624;5.886;2022-08-19T06:01:42;5.35;;;4.90;;
62709;SDS011;48770;51.624;5.886;2022-08-19T06:04:11;5.30;;;4.80;;
62709;SDS011;48770;51.624;5.886;2022-08-19T06:06:38;5.28;;;4.78;;
62709;SDS011;48770;51.624;5.886;2022-08-19T06:09:04;4.75;;;4.38;;
62709;SDS011;48770;51.624;5.886;2022-08-19T06:14:00;5.28;;;4.75;;
62709;SDS011;48770;51.624;5.886;2022-08-19T06:16:32;5.25;;;4.68;;
62709;SDS011;48770;51.624;5.886;2022-08-19T06:19:00;4.85;;;4.43;;
62709;SDS011;48770;51.624;5.886;2022-08-19T06:21:28;5.18;;;4.43;;
62709;SDS011;48770;51.624;5.886;2022-08-19T06:23:55;5.65;;;5.15;;
62709;SDS011;48770;51.624;5.886;2022-08-19T06:26:22;5.47;;;5.00;;
62709;SDS011;48770;51.624;5.886;2022-08-19T06:28:48;8.05;;;5.18;;
62709;SDS011;48770;51.624;5.886;2022-08-19T06:31:14;5.30;;;4.80;;
62709;SDS011;48770;51.624;5.886;2022-08-19T06:33:41;6.78;;;4.82;;
62709;SDS011;48770;51.624;5.886;2022-08-19T06:36:07;6.03;;;5.43;;
62709;SDS011;48770;51.624;5.886;2022-08-19T06:38:41;5.50;;;4.97;;
62709;SDS011;48770;51.624;5.886;2022-08-19T06:41:06;5.88;;;5.28;;
62709;SDS011;48770;51.624;5.886;2022-08-19T06:43:31;6.80;;;5.25;;
62709;SDS011;48770;51.624;5.886;2022-08-19T06:45:57;5.97;;;5.10;;
62709;SDS011;48770;51.624;5.886;2022-08-19T06:48:23;7.38;;;5.68;;
62709;SDS011;48770;51.624;5.886;2022-08-19T06:50:49;6.82;;;4.82;;
62709;SDS011;48770;51.624;5.886;2022-08-19T06:53:16;6.10;;;5.25;;
62709;SDS011;48770;51.624;5.886;2022-08-19T06:55:44;5.85;;;5.25;;
62709;SDS011;48770;51.624;5.886;2022-08-19T06:58:10;5.20;;;4.57;;
62709;SDS011;48770;51.624;5.886;2022-08-19T07:00:35;6.65;;;5.70;;
62709;SDS011;48770;51.624;5.886;2022-08-19T07:03:01;5.28;;;4.75;;
62709;SDS011;48770;51.624;5.886;2022-08-19T07:05:27;4.95;;;4.45;;
62709;SDS011;48770;51.624;5.886;2022-08-19T07:07:52;5.85;;;4.70;;
62709;SDS011;48770;51.624;5.886;2022-08-19T07:10:18;6.25;;;4.82;;
62709;SDS011;48770;51.624;5.886;2022-08-19T07:12:44;5.47;;;4.95;;
62709;SDS011;48770;51.624;5.886;2022-08-19T07:15:09;8.25;;;5.55;;
62709;SDS011;48770;51.624;5.886;2022-08-19T07:17:36;5.97;;;5.38;;
62709;SDS011;48770;51.624;5.886;2022-08-19T07:20:04;9.60;;;7.35;;
62709;SDS011;48770;51.624;5.886;2022-08-19T07:22:32;12.10;;;9.38;;
62709;SDS011;48770;51.624;5.886;2022-08-19T07:25:00;20.30;;;10.88;;
62709;SDS011;48770;51.624;5.886;2022-08-19T07:27:29;17.92;;;14.63;;
62709;SDS011;48770;51.624;5.886;2022-08-19T07:29:54;21.48;;;15.15;;
62709;SDS011;48770;51.624;5.886;2022-08-19T07:32:20;20.15;;;16.27;;
62709;SDS011;48770;51.624;5.886;2022-08-19T07:34:45;24.33;;;17.90;;
62709;SDS011;48770;51.624;5.886;2022-08-19T07:37:10;21.30;;;15.55;;
62709;SDS011;48770;51.624;5.886;2022-08-19T07:39:36;22.52;;;15.43;;
62709;SDS011;48770;51.624;5.886;2022-08-19T07:42:04;21.33;;;14.65;;
62709;SDS011;48770;51.624;5.886;2022-08-19T07:44:32;20.38;;;15.20;;
62709;SDS011;48770;51.624;5.886;2022-08-19T07:46:58;18.38;;;13.30;;
62709;SDS011;48770;51.624;5.886;2022-08-19T07:49:25;16.85;;;13.10;;
62709;SDS011;48770;51.624;5.886;2022-08-19T07:52:01;15.70;;;12.02;;
62709;SDS011;48770;51.624;5.886;2022-08-19T07:54:30;14.05;;;11.15;;
62709;SDS011;48770;51.624;5.886;2022-08-19T07:56:59;15.32;;;11.18;;
62709;SDS011;48770;51.624;5.886;2022-08-19T07:59:25;12.88;;;9.98;;
62709;SDS011;48770;51.624;5.886;2022-08-19T08:01:51;16.02;;;10.82;;
62709;SDS011;48770;51.624;5.886;2022-08-19T08:04:17;11.68;;;9.70;;
62709;SDS011;48770;51.624;5.886;2022-08-19T08:07:02;10.75;;;8.70;;
62709;SDS011;48770;51.624;5.886;2022-08-19T08:09:47;10.05;;;8.32;;
62709;SDS011;48770;51.624;5.886;2022-08-19T08:12:18;11.02;;;8.68;;
62709;SDS011;48770;51.624;5.886;2022-08-19T08:14:51;10.75;;;8.63;;
62709;SDS011;48770;51.624;5.886;2022-08-19T08:17:19;11.27;;;7.82;;
62709;SDS011;48770;51.624;5.886;2022-08-19T08:19:46;9.82;;;7.50;;
62709;SDS011;48770;51.624;5.886;2022-08-19T08:22:14;7.72;;;6.82;;
62709;SDS011;48770;51.624;5.886;2022-08-19T08:25:01;8.63;;;6.93;;
62709;SDS011;48770;51.624;5.886;2022-08-19T08:27:30;8.50;;;7.00;;
62709;SDS011;48770;51.624;5.886;2022-08-19T08:29:56;8.93;;;6.63;;
62709;SDS011;48770;51.624;5.886;2022-08-19T08:32:22;8.30;;;6.13;;
62709;SDS011;48770;51.624;5.886;2022-08-19T08:34:47;7.93;;;5.90;;
62709;SDS011;48770;51.624;5.886;2022-08-19T08:37:13;6.45;;;5.85;;
62709;SDS011;48770;51.624;5.886;2022-08-19T08:39:38;7.35;;;5.70;;
62709;SDS011;48770;51.624;5.886;2022-08-19T08:45:09;6.18;;;5.28;;
62709;SDS011;48770;51.624;5.886;2022-08-19T08:47:39;7.90;;;5.82;;
62709;SDS011;48770;51.624;5.886;2022-08-19T08:50:31;6.50;;;5.68;;
62709;SDS011;48770;51.624;5.886;2022-08-19T08:53:03;6.05;;;5.00;;
62709;SDS011;48770;51.624;5.886;2022-08-19T08:55:31;7.07;;;5.30;;
62709;SDS011;48770;51.624;5.886;2022-08-19T08:58:01;6.28;;;5.22;;
62709;SDS011;48770;51.624;5.886;2022-08-19T09:00:33;6.70;;;5.70;;
62709;SDS011;48770;51.624;5.886;2022-08-19T09:03:06;8.00;;;5.60;;
62709;SDS011;48770;51.624;5.886;2022-08-19T09:10:57;6.97;;;4.85;;
62709;SDS011;48770;51.624;5.886;2022-08-19T09:16:16;6.28;;;4.78;;
62709;SDS011;48770;51.624;5.886;2022-08-19T09:18:47;5.88;;;4.78;;
62709;SDS011;48770;51.624;5.886;2022-08-19T09:21:19;6.35;;;4.53;;
62709;SDS011;48770;51.624;5.886;2022-08-19T09:23:46;6.50;;;4.38;;
62709;SDS011;48770;51.624;5.886;2022-08-19T09:26:13;5.75;;;5.00;;
62709;SDS011;48770;51.624;5.886;2022-08-19T09:28:41;5.25;;;4.38;;
62709;SDS011;48770;51.624;5.886;2022-08-19T09:31:08;5.28;;;4.57;;
62709;SDS011;48770;51.624;5.886;2022-08-19T09:33:38;4.82;;;4.32;;
62709;SDS011;48770;51.624;5.886;2022-08-19T09:36:05;5.43;;;4.38;;
62709;SDS011;48770;51.624;5.886;2022-08-19T09:38:32;5.18;;;4.18;;
62709;SDS011;48770;51.624;5.886;2022-08-19T09:41:01;4.85;;;3.47;;
62709;SDS011;48770;51.624;5.886;2022-08-19T09:43:37;5.70;;;3.97;;
62709;SDS011;48770;51.624;5.886;2022-08-19T09:46:03;7.82;;;3.95;;
62709;SDS011;48770;51.624;5.886;2022-08-19T09:48:35;8.45;;;3.67;;
62709;SDS011;48770;51.624;5.886;2022-08-19T09:51:02;8.02;;;4.03;;
62709;SDS011;48770;51.624;5.886;2022-08-19T09:53:29;6.72;;;4.07;;
62709;SDS011;48770;51.624;5.886;2022-08-19T09:55:55;5.07;;;4.25;;
62709;SDS011;48770;51.624;5.886;2022-08-19T09:58:20;4.28;;;3.85;;
62709;SDS011;48770;51.624;5.886;2022-08-19T10:00:52;5.18;;;3.95;;
62709;SDS011;48770;51.624;5.886;2022-08-19T10:03:21;5.45;;;4.68;;
62709;SDS011;48770;51.624;5.886;2022-08-19T10:05:47;6.18;;;4.32;;
62709;SDS011;48770;51.624;5.886;2022-08-19T10:08:13;4.63;;;4.22;;
62709;SDS011;48770;51.624;5.886;2022-08-19T10:10:40;4.90;;;3.85;;
62709;SDS011;48770;51.624;5.886;2022-08-19T10:13:09;4.50;;;3.95;;
62709;SDS011;48770;51.624;5.886;2022-08-19T10:15:35;5.78;;;4.60;;
62709;SDS011;48770;51.624;5.886;2022-08-19T10:18:04;4.65;;;4.22;;
62709;SDS011;48770;51.624;5.886;2022-08-19T10:20:31;6.03;;;4.50;;
62709;SDS011;48770;51.624;5.886;2022-08-19T10:22:56;5.50;;;4.47;;
62709;SDS011;48770;51.624;5.886;2022-08-19T10:25:24;6.72;;;5.28;;
62709;SDS011;48770;51.624;5.886;2022-08-19T10:27:49;6.03;;;4.40;;
62709;SDS011;48770;51.624;5.886;2022-08-19T10:30:14;4.72;;;4.28;;
62709;SDS011;48770;51.624;5.886;2022-08-19T10:32:40;7.13;;;5.60;;
62709;SDS011;48770;51.624;5.886;2022-08-19T10:35:05;6.20;;;4.90;;
62709;SDS011;48770;51.624;5.886;2022-08-19T10:37:33;6.15;;;5.25;;
62709;SDS011;48770;51.624;5.886;2022-08-19T10:39:59;5.45;;;4.95;;
62709;SDS011;48770;51.624;5.886;2022-08-19T10:42:24;5.68;;;5.07;;
62709;SDS011;48770;51.624;5.886;2022-08-19T10:44:50;8.57;;;5.45;;
62709;SDS011;48770;51.624;5.886;2022-08-19T10:47:15;7.43;;;5.50;;
62709;SDS011;48770;51.624;5.886;2022-08-19T10:49:41;6.85;;;5.95;;
62709;SDS011;48770;51.624;5.886;2022-08-19T10:52:24;5.95;;;5.43;;
62709;SDS011;48770;51.624;5.886;2022-08-19T10:54:59;5.80;;;5.20;;
62709;SDS011;48770;51.624;5.886;2022-08-19T10:57:44;6.13;;;5.63;;
62709;SDS011;48770;51.624;5.886;2022-08-19T11:00:10;7.03;;;5.30;;
62709;SDS011;48770;51.624;5.886;2022-08-19T11:02:36;6.28;;;5.22;;
62709;SDS011;48770;51.624;5.886;2022-08-19T11:05:01;6.47;;;5.70;;
62709;SDS011;48770;51.624;5.886;2022-08-19T11:07:27;6.63;;;5.95;;
62709;SDS011;48770;51.624;5.886;2022-08-19T11:09:53;6.85;;;6.15;;
62709;SDS011;48770;51.624;5.886;2022-08-19T11:12:18;6.13;;;5.50;;
62709;SDS011;48770;51.624;5.886;2022-08-19T11:14:44;6.80;;;5.97;;
62709;SDS011;48770;51.624;5.886;2022-08-19T11:17:10;6.47;;;5.88;;
62709;SDS011;48770;51.624;5.886;2022-08-19T11:19:38;7.30;;;6.60;;
62709;SDS011;48770;51.624;5.886;2022-08-19T11:22:06;6.80;;;6.15;;
62709;SDS011;48770;51.624;5.886;2022-08-19T11:24:34;7.07;;;6.38;;
62709;SDS011;48770;51.624;5.886;2022-08-19T11:27:05;9.00;;;6.47;;
62709;SDS011;48770;51.624;5.886;2022-08-19T11:29:34;7.35;;;6.65;;
62709;SDS011;48770;51.624;5.886;2022-08-19T11:32:03;7.25;;;6.55;;
62709;SDS011;48770;51.624;5.886;2022-08-19T11:34:30;7.30;;;6.57;;
62709;SDS011;48770;51.624;5.886;2022-08-19T11:36:56;6.93;;;6.22;;
62709;SDS011;48770;51.624;5.886;2022-08-19T11:39:26;7.35;;;6.65;;
62709;SDS011;48770;51.624;5.886;2022-08-19T11:41:54;8.63;;;6.45;;
62709;SDS011;48770;51.624;5.886;2022-08-19T11:44:19;7.25;;;6.55;;
62709;SDS011;48770;51.624;5.886;2022-08-19T11:46:45;7.30;;;6.47;;
62709;SDS011;48770;51.624;5.886;2022-08-19T11:49:12;7.47;;;6.68;;
62709;SDS011;48770;51.624;5.886;2022-08-19T11:51:38;8.40;;;7.50;;
62709;SDS011;48770;51.624;5.886;2022-08-19T11:54:04;8.63;;;6.88;;
62709;SDS011;48770;51.624;5.886;2022-08-19T11:56:31;7.53;;;6.78;;
62709;SDS011;48770;51.624;5.886;2022-08-19T11:58:57;9.52;;;7.65;;
62709;SDS011;48770;51.624;5.886;2022-08-19T12:01:23;7.63;;;6.60;;
62709;SDS011;48770;51.624;5.886;2022-08-19T12:03:51;7.97;;;7.18;;
62709;SDS011;48770;51.624;5.886;2022-08-19T12:06:19;7.78;;;7.03;;
62709;SDS011;48770;51.624;5.886;2022-08-19T12:08:54;8.48;;;7.55;;
62709;SDS011;48770;51.624;5.886;2022-08-19T12:11:20;9.23;;;7.43;;
62709;SDS011;48770;51.624;5.886;2022-08-19T12:13:46;7.68;;;6.97;;
62709;SDS011;48770;51.624;5.886;2022-08-19T12:16:14;8.20;;;7.40;;
62709;SDS011;48770;51.624;5.886;2022-08-19T12:18:42;8.80;;;7.50;;
62709;SDS011;48770;51.624;5.886;2022-08-19T12:21:11;10.98;;;8.38;;
62709;SDS011;48770;51.624;5.886;2022-08-19T12:23:39;8.00;;;7.25;;
62709;SDS011;48770;51.624;5.886;2022-08-19T12:26:05;9.32;;;8.05;;
62709;SDS011;48770;51.624;5.886;2022-08-19T12:28:31;8.57;;;7.68;;
62709;SDS011;48770;51.624;5.886;2022-08-19T12:30:56;8.73;;;7.80;;
62709;SDS011;48770;51.624;5.886;2022-08-19T12:33:22;8.38;;;7.57;;
62709;SDS011;48770;51.624;5.886;2022-08-19T12:35:49;8.50;;;7.63;;
62709;SDS011;48770;51.624;5.886;2022-08-19T12:38:15;8.52;;;7.63;;
62709;SDS011;48770;51.624;5.886;2022-08-19T12:40:40;7.75;;;6.95;;
62709;SDS011;48770;51.624;5.886;2022-08-19T12:43:07;7.65;;;6.85;;
62709;SDS011;48770;51.624;5.886;2022-08-19T12:45:33;9.55;;;7.63;;
62709;SDS011;48770;51.624;5.886;2022-08-19T12:47:59;10.50;;;8.00;;
62709;SDS011;48770;51.624;5.886;2022-08-19T12:50:24;8.82;;;7.93;;
62709;SDS011;48770;51.624;5.886;2022-08-19T12:52:49;8.82;;;7.82;;
62709;SDS011;48770;51.624;5.886;2022-08-19T12:55:15;8.60;;;7.80;;
62709;SDS011;48770;51.624;5.886;2022-08-19T12:57:41;8.80;;;8.00;;
62709;SDS011;48770;51.624;5.886;2022-08-19T13:02:40;8.23;;;7.43;;
62709;SDS011;48770;51.624;5.886;2022-08-19T13:05:07;8.77;;;7.97;;
62709;SDS011;48770;51.624;5.886;2022-08-19T13:07:36;10.07;;;8.20;;
62709;SDS011;48770;51.624;5.886;2022-08-19T13:10:04;8.82;;;7.93;;
62709;SDS011;48770;51.624;5.886;2022-08-19T13:12:32;7.93;;;7.22;;
62709;SDS011;48770;51.624;5.886;2022-08-19T13:14:57;7.93;;;7.20;;
62709;SDS011;48770;51.624;5.886;2022-08-19T13:17:22;7.93;;;7.22;;
62709;SDS011;48770;51.624;5.886;2022-08-19T13:19:48;8.77;;;7.28;;
62709;SDS011;48770;51.624;5.886;2022-08-19T13:22:13;10.60;;;7.78;;
62709;SDS011;48770;51.624;5.886;2022-08-19T13:24:39;8.82;;;7.95;;
62709;SDS011;48770;51.624;5.886;2022-08-19T13:27:04;8.23;;;7.40;;
62709;SDS011;48770;51.624;5.886;2022-08-19T13:29:30;9.00;;;7.90;;
62709;SDS011;48770;51.624;5.886;2022-08-19T13:32:13;8.20;;;7.38;;
62709;SDS011;48770;51.624;5.886;2022-08-19T13:34:58;7.30;;;6.60;;
62709;SDS011;48770;51.624;5.886;2022-08-19T13:37:23;7.63;;;6.93;;
62709;SDS011;48770;51.624;5.886;2022-08-19T13:40:06;7.63;;;6.93;;
62709;SDS011;48770;51.624;5.886;2022-08-19T13:42:36;8.07;;;7.28;;
62709;SDS011;48770;51.624;5.886;2022-08-19T13:45:01;7.80;;;7.10;;
62709;SDS011;48770;51.624;5.886;2022-08-19T13:47:27;7.55;;;6.85;;
62709;SDS011;48770;51.624;5.886;2022-08-19T13:49:52;7.43;;;6.70;;
62709;SDS011;48770;51.624;5.886;2022-08-19T13:52:17;7.38;;;6.70;;
62709;SDS011;48770;51.624;5.886;2022-08-19T13:54:43;7.85;;;7.07;;
62709;SDS011;48770;51.624;5.886;2022-08-19T13:57:08;7.80;;;6.47;;
62709;SDS011;48770;51.624;5.886;2022-08-19T13:59:34;7.63;;;6.90;;
62709;SDS011;48770;51.624;5.886;2022-08-19T14:02:00;8.68;;;6.80;;
62709;SDS011;48770;51.624;5.886;2022-08-19T14:04:25;6.78;;;6.10;;
62709;SDS011;48770;51.624;5.886;2022-08-19T14:06:52;7.28;;;6.68;;
62709;SDS011;48770;51.624;5.886;2022-08-19T14:09:17;7.90;;;7.03;;
62709;SDS011;48770;51.624;5.886;2022-08-19T14:11:42;7.15;;;6.55;;
62709;SDS011;48770;51.624;5.886;2022-08-19T14:14:10;7.57;;;6.78;;
62709;SDS011;48770;51.624;5.886;2022-08-19T14:16:35;7.10;;;6.43;;
62709;SDS011;48770;51.624;5.886;2022-08-19T14:19:01;9.77;;;6.77;;
62709;SDS011;48770;51.624;5.886;2022-08-19T14:21:26;7.13;;;6.50;;
62709;SDS011;48770;51.624;5.886;2022-08-19T14:23:52;7.70;;;6.90;;
62709;SDS011;48770;51.624;5.886;2022-08-19T14:26:18;7.55;;;6.85;;
62709;SDS011;48770;51.624;5.886;2022-08-19T14:28:45;8.00;;;7.20;;
62709;SDS011;48770;51.624;5.886;2022-08-19T14:31:11;7.80;;;7.00;;
62709;SDS011;48770;51.624;5.886;2022-08-19T14:33:39;7.95;;;6.93;;
62709;SDS011;48770;51.624;5.886;2022-08-19T14:36:05;7.57;;;6.88;;
62709;SDS011;48770;51.624;5.886;2022-08-19T14:38:30;7.85;;;7.15;;
62709;SDS011;48770;51.624;5.886;2022-08-19T14:41:05;8.25;;;7.45;;
62709;SDS011;48770;51.624;5.886;2022-08-19T14:43:35;7.80;;;7.00;;
62709;SDS011;48770;51.624;5.886;2022-08-19T14:46:00;8.43;;;7.63;;
62709;SDS011;48770;51.624;5.886;2022-08-19T14:48:26;8.98;;;7.68;;
62709;SDS011;48770;51.624;5.886;2022-08-19T14:50:52;8.40;;;7.53;;
62709;SDS011;48770;51.624;5.886;2022-08-19T14:53:17;8.18;;;7.38;;
62709;SDS011;48770;51.624;5.886;2022-08-19T14:55:44;8.70;;;7.90;;
62709;SDS011;48770;51.624;5.886;2022-08-19T14:58:10;8.63;;;7.72;;
62709;SDS011;48770;51.624;5.886;2022-08-19T15:00:37;8.40;;;7.63;;
62709;SDS011;48770;51.624;5.886;2022-08-19T15:03:02;8.90;;;7.97;;
62709;SDS011;48770;51.624;5.886;2022-08-19T15:05:27;8.13;;;7.43;;
62709;SDS011;48770;51.624;5.886;2022-08-19T15:07:53;8.35;;;7.55;;
62709;SDS011;48770;51.624;5.886;2022-08-19T15:10:19;8.57;;;7.65;;